sensor_id;sensor_type;location;lat;lon;timestamp;P1;durP1;ratioP1;P2;durP2;ratioP2
48685;SDS011;34485;51.536;3.816;2023-03-11T05:34:04;7.70;;;2.80;;
48685;SDS011;34485;51.536;3.816;2023-03-11T05:36:30;5.07;;;2.70;;
48685;SDS011;34485;51.536;3.816;2023-03-11T05:38:55;10.07;;;2.60;;
48685;SDS011;34485;51.536;3.816;2023-03-11T05:41:21;3.10;;;2.80;;
48685;SDS011;34485;51.536;3.816;2023-03-11T05:43:47;5.67;;;2.83;;
48685;SDS011;34485;51.536;3.816;2023-03-11T05:46:12;11.98;;;4.45;;
48685;SDS011;34485;51.536;3.816;2023-03-11T05:48:38;10.67;;;3.40;;
48685;SDS011;34485;51.536;3.816;2023-03-11T05:51:07;5.13;;;2.45;;
48685;SDS011;34485;51.536;3.816;2023-03-11T05:53:34;5.47;;;2.55;;
48685;SDS011;34485;51.536;3.816;2023-03-11T05:56:00;4.57;;;2.73;;
48685;SDS011;34485;51.536;3.816;2023-03-11T05:58:27;12.07;;;3.28;;
48685;SDS011;34485;51.536;3.816;2023-03-11T06:00:53;7.72;;;3.00;;
48685;SDS011;34485;51.536;3.816;2023-03-11T06:03:19;7.13;;;2.27;;
48685;SDS011;34485;51.536;3.816;2023-03-11T06:05:45;7.05;;;2.80;;
48685;SDS011;34485;51.536;3.816;2023-03-11T06:08:11;9.77;;;3.42;;
48685;SDS011;34485;51.536;3.816;2023-03-11T06:10:37;11.68;;;3.08;;
48685;SDS011;34485;51.536;3.816;2023-03-11T06:13:03;5.13;;;2.87;;
48685;SDS011;34485;51.536;3.816;2023-03-11T06:15:28;3.83;;;2.67;;
48685;SDS011;34485;51.536;3.816;2023-03-11T06:17:54;8.98;;;2.95;;
48685;SDS011;34485;51.536;3.816;2023-03-11T06:20:20;4.27;;;3.10;;
48685;SDS011;34485;51.536;3.816;2023-03-11T06:22:48;4.22;;;3.45;;
48685;SDS011;34485;51.536;3.816;2023-03-11T06:25:14;6.68;;;3.78;;
48685;SDS011;34485;51.536;3.816;2023-03-11T06:27:40;5.17;;;3.07;;
48685;SDS011;34485;51.536;3.816;2023-03-11T06:30:06;6.67;;;2.80;;
48685;SDS011;34485;51.536;3.816;2023-03-11T06:32:31;2.97;;;2.70;;
48685;SDS011;34485;51.536;3.816;2023-03-11T06:34:59;6.55;;;3.50;;
48685;SDS011;34485;51.536;3.816;2023-03-11T06:37:25;5.10;;;2.47;;
48685;SDS011;34485;51.536;3.816;2023-03-11T06:39:51;10.32;;;3.05;;
48685;SDS011;34485;51.536;3.816;2023-03-11T06:42:17;7.43;;;2.60;;
48685;SDS011;34485;51.536;3.816;2023-03-11T06:44:43;7.07;;;3.43;;
48685;SDS011;34485;51.536;3.816;2023-03-11T06:47:10;10.00;;;3.13;;
48685;SDS011;34485;51.536;3.816;2023-03-11T06:49:36;4.82;;;2.80;;
48685;SDS011;34485;51.536;3.816;2023-03-11T06:52:05;3.10;;;2.78;;
48685;SDS011;34485;51.536;3.816;2023-03-11T06:54:31;3.83;;;2.20;;
48685;SDS011;34485;51.536;3.816;2023-03-11T06:56:57;8.57;;;3.15;;
48685;SDS011;34485;51.536;3.816;2023-03-11T06:59:22;8.00;;;3.37;;
48685;SDS011;34485;51.536;3.816;2023-03-11T07:01:48;3.40;;;2.22;;
48685;SDS011;34485;51.536;3.816;2023-03-11T07:04:13;4.97;;;3.35;;
48685;SDS011;34485;51.536;3.816;2023-03-11T07:06:40;7.33;;;3.50;;
48685;SDS011;34485;51.536;3.816;2023-03-11T07:09:06;4.47;;;2.70;;
48685;SDS011;34485;51.536;3.816;2023-03-11T07:11:32;7.20;;;3.40;;
48685;SDS011;34485;51.536;3.816;2023-03-11T07:13:58;4.13;;;3.67;;
48685;SDS011;34485;51.536;3.816;2023-03-11T07:16:24;7.00;;;3.37;;
48685;SDS011;34485;51.536;3.816;2023-03-11T07:18:51;3.45;;;2.70;;
48685;SDS011;34485;51.536;3.816;2023-03-11T07:21:20;3.40;;;3.10;;
48685;SDS011;34485;51.536;3.816;2023-03-11T07:23:47;5.85;;;2.72;;
48685;SDS011;34485;51.536;3.816;2023-03-11T07:26:16;7.20;;;3.40;;
48685;SDS011;34485;51.536;3.816;2023-03-11T07:28:41;8.23;;;3.20;;
48685;SDS011;34485;51.536;3.816;2023-03-11T07:31:09;6.72;;;3.30;;
48685;SDS011;34485;51.536;3.816;2023-03-11T07:33:36;10.88;;;2.67;;
48685;SDS011;34485;51.536;3.816;2023-03-11T07:36:09;6.05;;;2.85;;
48685;SDS011;34485;51.536;3.816;2023-03-11T07:38:37;8.53;;;3.70;;
48685;SDS011;34485;51.536;3.816;2023-03-11T07:41:03;8.50;;;3.08;;
48685;SDS011;34485;51.536;3.816;2023-03-11T07:43:30;9.68;;;3.03;;
48685;SDS011;34485;51.536;3.816;2023-03-11T07:46:03;5.97;;;3.20;;
48685;SDS011;34485;51.536;3.816;2023-03-11T07:48:30;4.30;;;2.90;;
48685;SDS011;34485;51.536;3.816;2023-03-11T07:51:06;13.63;;;2.70;;
48685;SDS011;34485;51.536;3.816;2023-03-11T07:53:34;10.77;;;3.47;;
48685;SDS011;34485;51.536;3.816;2023-03-11T07:56:00;5.30;;;2.95;;
48685;SDS011;34485;51.536;3.816;2023-03-11T07:58:26;7.22;;;3.60;;
48685;SDS011;34485;51.536;3.816;2023-03-11T08:00:52;8.50;;;3.10;;
48685;SDS011;34485;51.536;3.816;2023-03-11T08:03:20;14.82;;;2.53;;
48685;SDS011;34485;51.536;3.816;2023-03-11T08:05:46;5.47;;;2.72;;
48685;SDS011;34485;51.536;3.816;2023-03-11T08:08:12;10.30;;;3.08;;
48685;SDS011;34485;51.536;3.816;2023-03-11T08:10:38;5.80;;;2.97;;
48685;SDS011;34485;51.536;3.816;2023-03-11T08:13:04;11.20;;;3.33;;
48685;SDS011;34485;51.536;3.816;2023-03-11T08:15:30;5.63;;;2.13;;
48685;SDS011;34485;51.536;3.816;2023-03-11T08:17:56;5.60;;;2.38;;
48685;SDS011;34485;51.536;3.816;2023-03-11T08:20:21;4.65;;;2.08;;
48685;SDS011;34485;51.536;3.816;2023-03-11T08:22:47;10.20;;;2.93;;
48685;SDS011;34485;51.536;3.816;2023-03-11T08:25:13;5.90;;;2.50;;
48685;SDS011;34485;51.536;3.816;2023-03-11T08:27:38;2.53;;;2.33;;
48685;SDS011;34485;51.536;3.816;2023-03-11T08:30:06;7.68;;;2.63;;
48685;SDS011;34485;51.536;3.816;2023-03-11T08:32:32;4.18;;;2.60;;
48685;SDS011;34485;51.536;3.816;2023-03-11T08:34:58;5.80;;;2.58;;
48685;SDS011;34485;51.536;3.816;2023-03-11T08:37:24;7.53;;;2.40;;
48685;SDS011;34485;51.536;3.816;2023-03-11T08:39:49;4.43;;;2.72;;
48685;SDS011;34485;51.536;3.816;2023-03-11T08:42:15;5.70;;;2.67;;
48685;SDS011;34485;51.536;3.816;2023-03-11T08:44:41;17.00;;;6.72;;
48685;SDS011;34485;51.536;3.816;2023-03-11T08:47:08;9.27;;;3.53;;
48685;SDS011;34485;51.536;3.816;2023-03-11T08:49:33;6.22;;;3.55;;
48685;SDS011;34485;51.536;3.816;2023-03-11T08:52:00;9.37;;;4.73;;
48685;SDS011;34485;51.536;3.816;2023-03-11T08:54:26;5.03;;;3.20;;
48685;SDS011;34485;51.536;3.816;2023-03-11T08:56:52;3.83;;;3.30;;
48685;SDS011;34485;51.536;3.816;2023-03-11T08:59:18;4.10;;;2.80;;
48685;SDS011;34485;51.536;3.816;2023-03-11T09:01:43;3.05;;;2.85;;
48685;SDS011;34485;51.536;3.816;2023-03-11T09:04:10;4.63;;;2.53;;
48685;SDS011;34485;51.536;3.816;2023-03-11T09:06:38;5.53;;;3.17;;
48685;SDS011;34485;51.536;3.816;2023-03-11T09:09:06;5.20;;;2.17;;
48685;SDS011;34485;51.536;3.816;2023-03-11T09:11:33;5.45;;;2.60;;
48685;SDS011;34485;51.536;3.816;2023-03-11T09:14:01;6.20;;;2.03;;
48685;SDS011;34485;51.536;3.816;2023-03-11T09:16:27;2.08;;;1.88;;
48685;SDS011;34485;51.536;3.816;2023-03-11T09:18:53;4.90;;;2.08;;
48685;SDS011;34485;51.536;3.816;2023-03-11T09:21:19;6.90;;;2.00;;
48685;SDS011;34485;51.536;3.816;2023-03-11T09:23:45;4.70;;;2.95;;
48685;SDS011;34485;51.536;3.816;2023-03-11T09:26:11;4.38;;;2.00;;
48685;SDS011;34485;51.536;3.816;2023-03-11T15:40:58;5.43;;;2.40;;
48685;SDS011;34485;51.536;3.816;2023-03-11T15:43:31;5.18;;;2.60;;
48685;SDS011;34485;51.536;3.816;2023-03-11T15:45:59;4.83;;;2.70;;
48685;SDS011;34485;51.536;3.816;2023-03-11T15:48:27;5.80;;;2.53;;
48685;SDS011;34485;51.536;3.816;2023-03-11T15:50:55;6.93;;;2.90;;
48685;SDS011;34485;51.536;3.816;2023-03-11T15:53:23;3.28;;;2.15;;
48685;SDS011;34485;51.536;3.816;2023-03-11T15:55:50;3.28;;;2.78;;
48685;SDS011;34485;51.536;3.816;2023-03-11T15:58:18;3.63;;;2.00;;
48685;SDS011;34485;51.536;3.816;2023-03-11T16:00:48;3.42;;;2.80;;
48685;SDS011;34485;51.536;3.816;2023-03-11T16:03:18;3.85;;;3.00;;
48685;SDS011;34485;51.536;3.816;2023-03-11T16:05:44;11.93;;;3.08;;
48685;SDS011;34485;51.536;3.816;2023-03-11T16:08:10;4.18;;;2.58;;
48685;SDS011;34485;51.536;3.816;2023-03-11T16:10:36;6.13;;;2.30;;
48685;SDS011;34485;51.536;3.816;2023-03-11T16:13:02;7.88;;;2.35;;
48685;SDS011;34485;51.536;3.816;2023-03-11T16:15:29;12.50;;;3.87;;
48685;SDS011;34485;51.536;3.816;2023-03-11T16:17:59;4.20;;;2.27;;
48685;SDS011;34485;51.536;3.816;2023-03-11T16:20:28;4.38;;;1.88;;
48685;SDS011;34485;51.536;3.816;2023-03-11T16:23:00;8.52;;;2.92;;
48685;SDS011;34485;51.536;3.816;2023-03-11T16:27:58;4.03;;;3.00;;
48685;SDS011;34485;51.536;3.816;2023-03-11T16:30:25;3.27;;;2.97;;
48685;SDS011;34485;51.536;3.816;2023-03-11T16:32:52;4.03;;;2.20;;
48685;SDS011;34485;51.536;3.816;2023-03-11T16:35:18;8.50;;;2.90;;
48685;SDS011;34485;51.536;3.816;2023-03-11T16:37:43;6.07;;;2.70;;
48685;SDS011;34485;51.536;3.816;2023-03-11T16:40:10;3.57;;;2.20;;
48685;SDS011;34485;51.536;3.816;2023-03-11T16:42:38;9.07;;;2.13;;
48685;SDS011;34485;51.536;3.816;2023-03-11T16:45:04;10.73;;;3.33;;
48685;SDS011;34485;51.536;3.816;2023-03-11T16:47:30;2.77;;;1.93;;
48685;SDS011;34485;51.536;3.816;2023-03-11T16:49:55;1.85;;;1.75;;
48685;SDS011;34485;51.536;3.816;2023-03-11T16:52:21;2.77;;;2.47;;
48685;SDS011;34485;51.536;3.816;2023-03-11T16:54:47;4.68;;;2.47;;
48685;SDS011;34485;51.536;3.816;2023-03-11T16:57:13;10.15;;;2.75;;
48685;SDS011;34485;51.536;3.816;2023-03-11T16:59:39;5.17;;;2.50;;
48685;SDS011;34485;51.536;3.816;2023-03-11T17:02:04;7.40;;;3.33;;
48685;SDS011;34485;51.536;3.816;2023-03-11T17:04:30;3.23;;;2.73;;
48685;SDS011;34485;51.536;3.816;2023-03-11T17:06:57;6.75;;;2.80;;
48685;SDS011;34485;51.536;3.816;2023-03-11T17:09:23;8.10;;;2.50;;
48685;SDS011;34485;51.536;3.816;2023-03-11T17:11:48;7.90;;;2.93;;
48685;SDS011;34485;51.536;3.816;2023-03-11T17:14:15;9.93;;;3.67;;
48685;SDS011;34485;51.536;3.816;2023-03-11T17:16:41;4.50;;;2.90;;
48685;SDS011;34485;51.536;3.816;2023-03-11T17:19:08;4.72;;;2.90;;
48685;SDS011;34485;51.536;3.816;2023-03-11T17:21:34;5.70;;;2.40;;
48685;SDS011;34485;51.536;3.816;2023-03-11T17:23:59;5.33;;;2.63;;
48685;SDS011;34485;51.536;3.816;2023-03-11T17:26:25;5.23;;;2.80;;
48685;SDS011;34485;51.536;3.816;2023-03-11T17:28:54;7.43;;;3.42;;
48685;SDS011;34485;51.536;3.816;2023-03-11T17:31:20;5.15;;;3.30;;
48685;SDS011;34485;51.536;3.816;2023-03-11T17:33:46;6.43;;;2.73;;
48685;SDS011;34485;51.536;3.816;2023-03-11T17:36:12;3.50;;;2.17;;
48685;SDS011;34485;51.536;3.816;2023-03-11T17:38:42;6.78;;;2.67;;
48685;SDS011;34485;51.536;3.816;2023-03-11T17:41:10;4.70;;;2.27;;
48685;SDS011;34485;51.536;3.816;2023-03-11T17:43:38;5.95;;;2.47;;
48685;SDS011;34485;51.536;3.816;2023-03-11T17:46:07;9.13;;;2.85;;
48685;SDS011;34485;51.536;3.816;2023-03-11T17:48:36;4.88;;;2.58;;
48685;SDS011;34485;51.536;3.816;2023-03-11T17:51:06;8.85;;;3.53;;
48685;SDS011;34485;51.536;3.816;2023-03-11T17:53:34;3.87;;;2.60;;
48685;SDS011;34485;51.536;3.816;2023-03-11T17:56:02;6.40;;;2.28;;
48685;SDS011;34485;51.536;3.816;2023-03-11T17:58:29;5.93;;;2.63;;
48685;SDS011;34485;51.536;3.816;2023-03-11T18:00:55;5.97;;;2.70;;
48685;SDS011;34485;51.536;3.816;2023-03-11T18:03:21;6.17;;;2.60;;
48685;SDS011;34485;51.536;3.816;2023-03-11T18:05:53;5.93;;;2.67;;
48685;SDS011;34485;51.536;3.816;2023-03-11T18:08:20;2.72;;;2.53;;
48685;SDS011;34485;51.536;3.816;2023-03-11T18:10:49;2.57;;;2.17;;
48685;SDS011;34485;51.536;3.816;2023-03-11T18:13:17;3.75;;;3.42;;
48685;SDS011;34485;51.536;3.816;2023-03-11T18:15:43;4.47;;;2.53;;
48685;SDS011;34485;51.536;3.816;2023-03-11T18:18:22;8.48;;;3.08;;
48685;SDS011;34485;51.536;3.816;2023-03-11T18:20:50;3.70;;;3.33;;
48685;SDS011;34485;51.536;3.816;2023-03-11T18:23:29;4.85;;;2.58;;
48685;SDS011;34485;51.536;3.816;2023-03-11T18:25:57;6.55;;;3.10;;
48685;SDS011;34485;51.536;3.816;2023-03-11T18:28:24;9.80;;;2.80;;
48685;SDS011;34485;51.536;3.816;2023-03-11T18:30:50;3.58;;;2.90;;
48685;SDS011;34485;51.536;3.816;2023-03-11T18:33:17;6.03;;;3.53;;
48685;SDS011;34485;51.536;3.816;2023-03-11T18:35:44;7.50;;;2.85;;
48685;SDS011;34485;51.536;3.816;2023-03-11T18:38:09;3.47;;;2.40;;
48685;SDS011;34485;51.536;3.816;2023-03-11T18:40:35;7.68;;;3.20;;
48685;SDS011;34485;51.536;3.816;2023-03-11T18:43:01;3.10;;;2.90;;
48685;SDS011;34485;51.536;3.816;2023-03-11T18:45:27;8.63;;;3.33;;
48685;SDS011;34485;51.536;3.816;2023-03-11T18:47:53;5.10;;;2.50;;
48685;SDS011;34485;51.536;3.816;2023-03-11T18:50:19;5.38;;;2.80;;
48685;SDS011;34485;51.536;3.816;2023-03-11T18:52:45;6.50;;;2.58;;
48685;SDS011;34485;51.536;3.816;2023-03-11T18:55:11;4.60;;;2.77;;
48685;SDS011;34485;51.536;3.816;2023-03-11T18:57:37;5.68;;;3.17;;
48685;SDS011;34485;51.536;3.816;2023-03-11T19:00:05;8.73;;;2.97;;
48685;SDS011;34485;51.536;3.816;2023-03-11T19:02:32;7.05;;;2.83;;
48685;SDS011;34485;51.536;3.816;2023-03-11T19:04:57;6.30;;;3.38;;
48685;SDS011;34485;51.536;3.816;2023-03-11T19:07:23;9.03;;;3.10;;
48685;SDS011;34485;51.536;3.816;2023-03-11T19:09:48;7.00;;;3.30;;
48685;SDS011;34485;51.536;3.816;2023-03-11T19:12:14;6.63;;;3.07;;
48685;SDS011;34485;51.536;3.816;2023-03-11T19:14:40;8.52;;;3.45;;
48685;SDS011;34485;51.536;3.816;2023-03-11T19:17:05;6.53;;;3.00;;
48685;SDS011;34485;51.536;3.816;2023-03-11T19:19:31;5.73;;;3.17;;
48685;SDS011;34485;51.536;3.816;2023-03-11T19:21:57;4.68;;;3.15;;
48685;SDS011;34485;51.536;3.816;2023-03-11T19:24:23;5.03;;;3.07;;
48685;SDS011;34485;51.536;3.816;2023-03-11T19:26:49;5.13;;;2.28;;
48685;SDS011;34485;51.536;3.816;2023-03-11T19:29:14;8.03;;;2.63;;
48685;SDS011;34485;51.536;3.816;2023-03-11T19:31:40;5.38;;;2.88;;
48685;SDS011;34485;51.536;3.816;2023-03-11T19:34:07;6.20;;;2.43;;
48685;SDS011;34485;51.536;3.816;2023-03-11T19:36:33;9.05;;;2.83;;
48685;SDS011;34485;51.536;3.816;2023-03-11T19:38:59;4.20;;;3.22;;
48685;SDS011;34485;51.536;3.816;2023-03-11T19:41:24;4.57;;;3.22;;
48685;SDS011;34485;51.536;3.816;2023-03-11T19:43:50;3.60;;;2.97;;
48685;SDS011;34485;51.536;3.816;2023-03-11T19:46:18;12.10;;;2.95;;
48685;SDS011;34485;51.536;3.816;2023-03-11T19:48:45;8.45;;;2.92;;
48685;SDS011;34485;51.536;3.816;2023-03-11T19:51:10;8.30;;;3.23;;
48685;SDS011;34485;51.536;3.816;2023-03-11T19:53:37;5.63;;;2.90;;
48685;SDS011;34485;51.536;3.816;2023-03-11T19:56:04;4.85;;;3.25;;
48685;SDS011;34485;51.536;3.816;2023-03-11T19:58:31;3.95;;;3.28;;
48685;SDS011;34485;51.536;3.816;2023-03-11T20:00:57;5.38;;;2.88;;
48685;SDS011;34485;51.536;3.816;2023-03-11T20:03:23;5.50;;;2.80;;
48685;SDS011;34485;51.536;3.816;2023-03-11T20:05:50;4.60;;;3.22;;
48685;SDS011;34485;51.536;3.816;2023-03-11T20:08:18;3.97;;;3.13;;
48685;SDS011;34485;51.536;3.816;2023-03-11T20:10:46;7.20;;;2.80;;
48685;SDS011;34485;51.536;3.816;2023-03-11T20:13:15;6.45;;;2.90;;
48685;SDS011;34485;51.536;3.816;2023-03-11T20:15:41;5.90;;;2.90;;
48685;SDS011;34485;51.536;3.816;2023-03-11T20:18:07;6.93;;;3.13;;
48685;SDS011;34485;51.536;3.816;2023-03-11T20:20:33;7.90;;;3.30;;
48685;SDS011;34485;51.536;3.816;2023-03-11T20:23:01;10.88;;;3.33;;
48685;SDS011;34485;51.536;3.816;2023-03-11T20:25:26;4.75;;;3.10;;
48685;SDS011;34485;51.536;3.816;2023-03-11T20:27:54;7.67;;;3.20;;
48685;SDS011;34485;51.536;3.816;2023-03-11T20:30:20;7.30;;;3.97;;
48685;SDS011;34485;51.536;3.816;2023-03-11T20:32:48;4.93;;;3.45;;
48685;SDS011;34485;51.536;3.816;2023-03-11T20:35:13;7.03;;;4.20;;
48685;SDS011;34485;51.536;3.816;2023-03-11T20:37:40;4.00;;;3.13;;
48685;SDS011;34485;51.536;3.816;2023-03-11T20:40:09;11.57;;;3.47;;
48685;SDS011;34485;51.536;3.816;2023-03-11T20:42:37;4.67;;;2.50;;
48685;SDS011;34485;51.536;3.816;2023-03-11T20:45:04;6.47;;;2.90;;
48685;SDS011;34485;51.536;3.816;2023-03-11T20:47:31;6.38;;;3.72;;
48685;SDS011;34485;51.536;3.816;2023-03-11T20:49:57;9.57;;;5.07;;
48685;SDS011;34485;51.536;3.816;2023-03-11T20:52:23;7.53;;;4.80;;
48685;SDS011;34485;51.536;3.816;2023-03-11T20:54:49;7.85;;;5.18;;
48685;SDS011;34485;51.536;3.816;2023-03-11T20:57:15;7.13;;;5.20;;
48685;SDS011;34485;51.536;3.816;2023-03-11T20:59:40;5.43;;;4.72;;
48685;SDS011;34485;51.536;3.816;2023-03-11T21:02:07;11.23;;;5.33;;
48685;SDS011;34485;51.536;3.816;2023-03-11T21:04:35;8.88;;;5.50;;
48685;SDS011;34485;51.536;3.816;2023-03-11T21:07:04;13.50;;;6.43;;
48685;SDS011;34485;51.536;3.816;2023-03-11T21:09:31;8.32;;;5.75;;
48685;SDS011;34485;51.536;3.816;2023-03-11T21:11:56;10.97;;;7.40;;
48685;SDS011;34485;51.536;3.816;2023-03-11T21:14:23;9.43;;;7.20;;
48685;SDS011;34485;51.536;3.816;2023-03-11T21:16:48;15.13;;;7.68;;
48685;SDS011;34485;51.536;3.816;2023-03-11T21:19:14;11.50;;;6.97;;
48685;SDS011;34485;51.536;3.816;2023-03-11T21:21:40;9.93;;;7.55;;
48685;SDS011;34485;51.536;3.816;2023-03-11T21:24:08;17.60;;;8.43;;
48685;SDS011;34485;51.536;3.816;2023-03-11T21:26:35;9.35;;;7.00;;
48685;SDS011;34485;51.536;3.816;2023-03-11T21:29:01;14.63;;;8.93;;
48685;SDS011;34485;51.536;3.816;2023-03-11T21:31:26;10.98;;;7.57;;
48685;SDS011;34485;51.536;3.816;2023-03-11T21:33:56;14.68;;;8.43;;
48685;SDS011;34485;51.536;3.816;2023-03-11T21:36:23;13.52;;;9.18;;
48685;SDS011;34485;51.536;3.816;2023-03-11T21:38:49;14.03;;;8.00;;
48685;SDS011;34485;51.536;3.816;2023-03-11T21:41:16;9.57;;;8.18;;
48685;SDS011;34485;51.536;3.816;2023-03-11T21:43:51;13.27;;;8.57;;
48685;SDS011;34485;51.536;3.816;2023-03-11T21:46:19;9.68;;;8.05;;
48685;SDS011;34485;51.536;3.816;2023-03-11T21:48:46;10.25;;;7.80;;
48685;SDS011;34485;51.536;3.816;2023-03-11T21:51:13;13.30;;;8.00;;
48685;SDS011;34485;51.536;3.816;2023-03-11T21:53:40;11.85;;;7.25;;
48685;SDS011;34485;51.536;3.816;2023-03-11T21:56:06;11.63;;;8.20;;
48685;SDS011;34485;51.536;3.816;2023-03-11T21:58:32;18.23;;;7.67;;
48685;SDS011;34485;51.536;3.816;2023-03-11T22:00:58;11.10;;;6.55;;
48685;SDS011;34485;51.536;3.816;2023-03-11T22:03:24;11.13;;;6.63;;
48685;SDS011;34485;51.536;3.816;2023-03-11T22:05:56;10.32;;;5.65;;
48685;SDS011;34485;51.536;3.816;2023-03-11T22:08:23;7.55;;;4.95;;
48685;SDS011;34485;51.536;3.816;2023-03-11T22:10:49;12.95;;;5.72;;
48685;SDS011;34485;51.536;3.816;2023-03-11T22:13:15;12.30;;;5.32;;
48685;SDS011;34485;51.536;3.816;2023-03-11T22:15:40;6.60;;;4.90;;
48685;SDS011;34485;51.536;3.816;2023-03-11T22:18:06;5.33;;;4.43;;
48685;SDS011;34485;51.536;3.816;2023-03-11T22:20:31;12.70;;;5.78;;
48685;SDS011;34485;51.536;3.816;2023-03-11T22:22:57;7.27;;;4.77;;
48685;SDS011;34485;51.536;3.816;2023-03-11T22:25:23;6.63;;;4.30;;
48685;SDS011;34485;51.536;3.816;2023-03-11T22:27:49;8.83;;;6.03;;
48685;SDS011;34485;51.536;3.816;2023-03-11T22:30:14;8.35;;;5.50;;
48685;SDS011;34485;51.536;3.816;2023-03-11T22:32:40;8.40;;;4.93;;
48685;SDS011;34485;51.536;3.816;2023-03-11T22:35:06;9.30;;;5.00;;
48685;SDS011;34485;51.536;3.816;2023-03-11T22:37:31;9.67;;;5.20;;
48685;SDS011;34485;51.536;3.816;2023-03-11T22:39:57;12.50;;;4.93;;
48685;SDS011;34485;51.536;3.816;2023-03-11T22:42:22;11.03;;;5.60;;
48685;SDS011;34485;51.536;3.816;2023-03-11T22:44:48;10.10;;;5.40;;
48685;SDS011;34485;51.536;3.816;2023-03-11T22:47:14;7.20;;;5.38;;
48685;SDS011;34485;51.536;3.816;2023-03-11T22:49:39;10.43;;;5.13;;
48685;SDS011;34485;51.536;3.816;2023-03-11T22:52:06;10.50;;;5.40;;
48685;SDS011;34485;51.536;3.816;2023-03-11T22:54:32;11.43;;;4.82;;
48685;SDS011;34485;51.536;3.816;2023-03-11T22:56:57;12.67;;;5.77;;
48685;SDS011;34485;51.536;3.816;2023-03-11T22:59:23;11.43;;;5.87;;
48685;SDS011;34485;51.536;3.816;2023-03-11T23:01:54;8.63;;;5.35;;
48685;SDS011;34485;51.536;3.816;2023-03-11T23:04:20;9.10;;;5.13;;
48685;SDS011;34485;51.536;3.816;2023-03-11T23:06:45;8.17;;;4.43;;
48685;SDS011;34485;51.536;3.816;2023-03-11T23:09:11;13.70;;;5.63;;
48685;SDS011;34485;51.536;3.816;2023-03-11T23:11:37;9.05;;;4.00;;
48685;SDS011;34485;51.536;3.816;2023-03-11T23:14:02;14.17;;;5.87;;
48685;SDS011;34485;51.536;3.816;2023-03-11T23:16:28;6.97;;;5.10;;
48685;SDS011;34485;51.536;3.816;2023-03-11T23:18:55;4.80;;;3.92;;
48685;SDS011;34485;51.536;3.816;2023-03-11T23:23:52;8.25;;;4.38;;
48685;SDS011;34485;51.536;3.816;2023-03-11T23:26:18;5.65;;;5.07;;
48685;SDS011;34485;51.536;3.816;2023-03-11T23:28:45;6.25;;;4.25;;
48685;SDS011;34485;51.536;3.816;2023-03-11T23:31:12;11.95;;;5.65;;
48685;SDS011;34485;51.536;3.816;2023-03-11T23:33:39;4.95;;;4.50;;
48685;SDS011;34485;51.536;3.816;2023-03-11T23:36:07;8.57;;;5.70;;
48685;SDS011;34485;51.536;3.816;2023-03-11T23:38:35;5.45;;;4.45;;
48685;SDS011;34485;51.536;3.816;2023-03-11T23:41:04;8.15;;;5.55;;
48685;SDS011;34485;51.536;3.816;2023-03-11T23:43:34;5.95;;;5.05;;
48685;SDS011;34485;51.536;3.816;2023-03-11T23:46:00;11.50;;;6.10;;
48685;SDS011;34485;51.536;3.816;2023-03-11T23:48:27;6.40;;;5.78;;
48685;SDS011;34485;51.536;3.816;2023-03-11T23:50:52;8.95;;;5.95;;
48685;SDS011;34485;51.536;3.816;2023-03-11T23:53:18;8.63;;;5.67;;
48685;SDS011;34485;51.536;3.816;2023-03-11T23:55:47;11.15;;;4.82;;
48685;SDS011;34485;51.536;3.816;2023-03-11T23:58:13;7.28;;;5.53;;
